Darya Jyoti — VRGM9 — position and weather

sailwx.info

Track history (hours):
 
Tides and Currents Weather Stations Pressure Air Temp Water Temp Dewpoint Dewpoint Depression Visibility Wind Speed Wind Dir Waves Ship Positions

Darya Jyoti

Last reported at 2014-Dec-10 13:33 UTC. Time now 2014-Dec-21 20:52 UTC.
Position N 49°37' W 127°12'.
Warning: this ship's position is 11 days out of date.

Length 229 m; draft 14.4 m.

Type: Cargo ship. MMSI: 477742700.

Date/timePositionNaut miles runAvg speedWind from/ knotsBaromVisibWave heightAir tempDewpointWater temp
2014-Dec-10 13:33N 49°37' W 127°12'1010.4
2014-Dec-10 12:33N 49°30' W 126°59'1110.7
2014-Dec-10 11:34N 49°24' W 126°47'1110.7
2014-Dec-10 10:33N 49°17' W 126°33'9 9.3
2014-Dec-10 09:33N 49°12' W 126°22'8 7.9
2014-Dec-10 08:33N 49°08' W 126°11'8 7.6
2014-Dec-10 07:33N 49°04' W 126°01'7 7.0
2014-Dec-10 06:34N 48°60' W 125°53'7 7.1
2014-Dec-10 05:33N 48°55' W 125°45'8 7.7
2014-Dec-10 04:33N 48°49' W 125°38'8 8.4
2014-Dec-10 03:33N 48°42' W 125°29'8 7.9
2014-Dec-10 02:32N 48°36' W 125°22'7 6.5
2014-Dec-10 01:30N 48°32' W 125°14'5 5.3
2014-Dec-10 00:31N 48°32' W 125°06'5 5.2
2014-Dec-09 23:33N 48°32' W 124°58'5 5.2
2014-Dec-09 22:33N 48°32' W 124°50'6 5.9
2014-Dec-09 21:33N 48°30' W 124°42'8 8.4
2014-Dec-09 20:34N 48°27' W 124°30'10 9.9
2014-Dec-09 19:34N 48°23' W 124°17'1110.7
2014-Dec-09 18:34N 48°19' W 124°02'1110.8
2014-Dec-09 17:33N 48°17' W 123°46'1110.9
2014-Dec-09 16:33N 48°17' W 123°29'6 6.3
2014-Dec-09 15:33N 48°20' W 123°21'0 0.1
2014-Dec-09 14:33N 48°20' W 123°21'0 0.0
2014-Dec-09 13:33N 48°20' W 123°21'0 0.0
2014-Dec-09 12:33N 48°20' W 123°21'0 0.0
2014-Dec-09 11:33N 48°20' W 123°21'0 0.1
2014-Dec-09 10:33N 48°20' W 123°21'0 0.2
2014-Dec-09 09:33N 48°20' W 123°22'0 0.1
2014-Dec-09 08:33N 48°20' W 123°22'0 0.1
2014-Dec-09 07:33N 48°20' W 123°22'0 0.0
2014-Dec-09 06:30N 48°20' W 123°22'0 0.0
2014-Dec-09 05:33N 48°20' W 123°22'0 0.0
2014-Dec-09 04:33N 48°20' W 123°22'0 0.0
2014-Dec-09 03:33N 48°20' W 123°22'0 0.1
2014-Dec-09 02:33N 48°20' W 123°22'0 0.1
2014-Dec-09 01:33N 48°20' W 123°22'1 1.2
2014-Dec-09 00:33N 48°21' W 123°21'8 7.9
2014-Dec-08 23:33N 48°27' W 123°12'1212.0
2014-Dec-08 22:33N 48°39' W 123°15'1010.4
2014-Dec-08 21:33N 48°46' W 123°04'1010.4
2014-Dec-08 20:33N 48°56' W 123°07'5 4.7
2014-Dec-08 19:31N 49°01' W 123°09'0 0.0
2014-Dec-08 18:33N 49°01' W 123°09'0 0.0
2014-Dec-08 17:33N 49°01' W 123°09'0 0.0
2014-Dec-08 16:33N 49°01' W 123°09'0 0.0
2014-Dec-08 15:33N 49°01' W 123°09'0 0.0
2014-Dec-08 14:33N 49°01' W 123°09'0 0.0
2014-Dec-08 13:33N 49°01' W 123°09'0 0.0
2014-Dec-08 12:33N 49°01' W 123°09'0 0.0
2014-Dec-08 11:33N 49°01' W 123°09'0 0.0
2014-Dec-08 10:33N 49°01' W 123°09'0 0.0
2014-Dec-08 09:33N 49°01' W 123°09'0 0.0
2014-Dec-08 08:33N 49°01' W 123°09'0 0.0
2014-Dec-08 07:33N 49°01' W 123°09'0 0.0
2014-Dec-08 06:33N 49°01' W 123°09'0 0.0
2014-Dec-08 05:33N 49°01' W 123°09'0 0.0
2014-Dec-08 04:33N 49°01' W 123°09'0 0.0
2014-Dec-08 03:33N 49°01' W 123°09'0 0.0
2014-Dec-08 02:33N 49°01' W 123°09'0 0.0
2014-Dec-08 01:33N 49°01' W 123°09'0 0.0
2014-Dec-08 00:33N 49°01' W 123°09'0 0.0
2014-Dec-07 23:33N 49°01' W 123°09'0 0.0
2014-Dec-07 22:33N 49°01' W 123°09'0 0.0
2014-Dec-07 21:33N 49°01' W 123°09'0 0.0
2014-Dec-07 20:33N 49°01' W 123°09'0 0.0
2014-Dec-07 19:33N 49°01' W 123°09'0 0.0
2014-Dec-07 18:33N 49°01' W 123°09'0 0.0
2014-Dec-07 17:33N 49°01' W 123°09'0 0.0
2014-Dec-07 16:33N 49°01' W 123°09'0 0.0
2014-Dec-07 15:33N 49°01' W 123°09'0 0.0
2014-Dec-07 14:33N 49°01' W 123°09'0 0.0
2014-Dec-07 13:33N 49°01' W 123°09'0 0.0
2014-Dec-07 12:33N 49°01' W 123°09'0 0.0
2014-Dec-07 11:33N 49°01' W 123°09'0 0.0
2014-Dec-07 10:33N 49°01' W 123°09'0 0.0
2014-Dec-07 09:33N 49°01' W 123°09'0 0.0
2014-Dec-07 08:33N 49°01' W 123°09'0 0.0
2014-Dec-07 07:33N 49°01' W 123°09'0 0.0
2014-Dec-07 06:33N 49°01' W 123°09'0 0.0
2014-Dec-07 05:33N 49°01' W 123°09'0 0.0
2014-Dec-07 04:33N 49°01' W 123°09'0 0.0
2014-Dec-07 03:33N 49°01' W 123°09'0 0.0
2014-Dec-07 02:33N 49°01' W 123°09'0 0.0
2014-Dec-07 01:33N 49°01' W 123°09'0 0.0
2014-Dec-07 00:33N 49°01' W 123°09'0 0.0
2014-Dec-06 23:33N 49°01' W 123°09'0 0.0
2014-Dec-06 22:33N 49°01' W 123°09'0 0.0
2014-Dec-06 21:33N 49°01' W 123°09'2 1.7
2014-Dec-06 20:33N 48°59' W 123°11'1 0.6
2014-Dec-06 19:33N 48°59' W 123°11'0 0.2
2014-Dec-06 18:33N 48°59' W 123°11'7 6.6
2014-Dec-06 17:33N 48°54' W 123°05'9 8.9
2014-Dec-06 16:33N 48°45' W 123°07'6 5.4
2014-Dec-06 15:31N 48°48' W 123°13'0 0.0
2014-Dec-06 14:22N 48°48' W 123°13'0 0.0
2014-Dec-06 13:31N 48°48' W 123°13'0 0.2
2014-Dec-06 12:28N 48°48' W 123°13'0 0.0
2014-Dec-06 11:19N 48°48' W 123°13'0 0.1
2014-Dec-06 10:28N 48°48' W 123°13'0 0.0
2014-Dec-06 09:31N 48°48' W 123°13'0 0.0
2014-Dec-06 08:22N 48°48' W 123°13'0 0.1
2014-Dec-06 07:28N 48°48' W 123°13'0 0.0
2014-Dec-06 06:31N 48°48' W 123°13'0 0.0
2014-Dec-06 05:25N 48°48' W 123°13'0 0.0
2014-Dec-06 04:28N 48°48' W 123°13'0 0.0
2014-Dec-06 03:19N 48°48' W 123°13'0 0.0
2014-Dec-06 02:31N 48°48' W 123°13'0 0.0
2014-Dec-06 01:31N 48°48' W 123°13'0 0.1
2014-Dec-06 00:22N 48°48' W 123°13'0 0.0
2014-Dec-05 23:28N 48°48' W 123°13'0 0.1
2014-Dec-05 22:31N 48°48' W 123°13'0 0.0
2014-Dec-05 21:31N 48°48' W 123°13'0 0.0
2014-Dec-05 20:22N 48°48' W 123°13'0 0.1
2014-Dec-05 19:28N 48°48' W 123°13'0 0.0
2014-Dec-05 18:31N 48°48' W 123°13'0 0.0
2014-Dec-05 17:28N 48°48' W 123°13'0 0.0
2014-Dec-05 16:25N 48°48' W 123°13'0 0.0
2014-Dec-05 15:28N 48°48' W 123°13'0 0.0
2014-Dec-05 14:31N 48°48' W 123°13'0 0.0
2014-Dec-05 13:31N 48°48' W 123°13'0 0.0
2014-Dec-05 12:25N 48°48' W 123°13'0 0.1
2014-Dec-05 11:19N 48°48' W 123°13'0 0.1
2014-Dec-05 10:31N 48°48' W 123°13'0 0.1
2014-Dec-05 09:31N 48°48' W 123°13'0 0.1
2014-Dec-05 08:19N 48°48' W 123°13'0 0.1
2014-Dec-05 07:19N 48°48' W 123°13'0 0.0
2014-Dec-05 06:10N 48°48' W 123°13'0 0.0
2014-Dec-05 05:31N 48°48' W 123°13'0 0.0
2014-Dec-05 04:28N 48°48' W 123°13'0 0.0
2014-Dec-05 03:22N 48°48' W 123°13'0 0.0
2014-Dec-05 02:13N 48°48' W 123°13'0 0.0
2014-Dec-05 01:31N 48°48' W 123°13'0 0.0
2014-Dec-05 00:31N 48°48' W 123°13'0 0.1
2014-Dec-04 23:31N 48°48' W 123°13'0 0.0
2014-Dec-04 22:31N 48°48' W 123°13'0 0.0
2014-Dec-04 21:31N 48°48' W 123°13'0 0.1
2014-Dec-04 20:31N 48°48' W 123°13'0 0.1
2014-Dec-04 19:28N 48°48' W 123°13'0 0.1
2014-Dec-04 18:31N 48°48' W 123°13'0 0.0
2014-Dec-04 17:31N 48°48' W 123°13'0 0.0
2014-Dec-04 16:25N 48°48' W 123°13'0 0.0
2014-Dec-04 15:31N 48°48' W 123°13'0 0.0
2014-Dec-04 14:13N 48°48' W 123°13'0 0.1
2014-Dec-04 13:31N 48°48' W 123°13'0 0.0
2014-Dec-04 12:29N 48°48' W 123°13'0 0.0
2014-Dec-04 11:33N 48°48' W 123°13'0 0.2
2014-Dec-04 10:33N 48°48' W 123°13'0 0.1
2014-Dec-04 09:33N 48°48' W 123°13'0 0.0
2014-Dec-04 08:33N 48°48' W 123°13'3 2.5
2014-Dec-04 07:33N 48°46' W 123°12'8 7.8
2014-Dec-04 06:33N 48°51' W 123°03'1313.2
2014-Dec-04 05:33N 48°60' W 123°17'1312.6
2014-Dec-04 04:33N 49°12' W 123°22'1111.4
2014-Dec-04 03:33N 49°19' W 123°09'2 2.3
2014-Dec-04 02:32N 49°18' W 123°06'0 0.0
2014-Dec-04 01:32N 49°18' W 123°06'0 0.0
2014-Dec-04 00:32N 49°18' W 123°06'0 0.1
2014-Dec-03 23:32N 49°18' W 123°06'0 0.0
2014-Dec-03 22:32N 49°18' W 123°06'0 0.1
2014-Dec-03 21:32N 49°18' W 123°06'0 0.0
2014-Dec-03 20:32N 49°18' W 123°06'0 0.1
2014-Dec-03 19:32N 49°18' W 123°06'0 0.0
2014-Dec-03 18:32N 49°18' W 123°06'0 0.0
2014-Dec-03 17:32N 49°18' W 123°06'0 0.0
2014-Dec-03 16:32N 49°18' W 123°06'0 0.0
2014-Dec-03 15:32N 49°18' W 123°06'0 0.0
2014-Dec-03 14:32N 49°18' W 123°06'0 0.0
2014-Dec-03 13:32N 49°18' W 123°06'0 0.1
2014-Dec-03 12:32N 49°18' W 123°06'0 0.0
2014-Dec-03 11:32N 49°18' W 123°06'0 0.0
2014-Dec-03 10:32N 49°18' W 123°06'0 0.1
2014-Dec-03 09:32N 49°18' W 123°06'0 0.2
2014-Dec-03 08:32N 49°18' W 123°05'0 0.1
2014-Dec-03 07:32N 49°18' W 123°05'0 0.1
2014-Dec-03 06:32N 49°18' W 123°05'0 0.1
2014-Dec-03 05:32N 49°18' W 123°06'0 0.0
2014-Dec-03 04:32N 49°18' W 123°06'0 0.0
2014-Dec-03 03:32N 49°18' W 123°06'0 0.0
2014-Dec-03 02:32N 49°18' W 123°06'0 0.0
2014-Dec-03 01:32N 49°18' W 123°06'0 0.0
2014-Dec-03 00:32N 49°18' W 123°06'0 0.1
2014-Dec-02 23:32N 49°18' W 123°06'0 0.0
2014-Dec-02 22:32N 49°18' W 123°06'0 0.1
2014-Dec-02 21:32N 49°18' W 123°06'0 0.2
2014-Dec-02 20:32N 49°18' W 123°05'0 0.0
2014-Dec-02 19:32N 49°18' W 123°05'0 0.0
2014-Dec-02 18:32N 49°18' W 123°05'0 0.1
2014-Dec-02 17:32N 49°18' W 123°05'0 0.1
2014-Dec-02 16:32N 49°18' W 123°06'0 0.0
2014-Dec-02 15:32N 49°18' W 123°06'0 0.0
2014-Dec-02 14:32N 49°18' W 123°06'0 0.0
2014-Dec-02 13:32N 49°18' W 123°06'0 0.1
2014-Dec-02 12:29N 49°18' W 123°05'0 0.1
2014-Dec-02 11:32N 49°18' W 123°06'0 0.1
2014-Dec-02 10:32N 49°18' W 123°06'0 0.0
2014-Dec-02 09:32N 49°18' W 123°06'0 0.2
2014-Dec-02 08:32N 49°18' W 123°05'0 0.1
2014-Dec-02 07:29N 49°18' W 123°05'0 0.2
2014-Dec-02 06:32N 49°18' W 123°05'0 0.1
2014-Dec-02 05:32N 49°18' W 123°06'0 0.0
2014-Dec-02 04:32N 49°18' W 123°06'0 0.0
2014-Dec-02 03:32N 49°18' W 123°06'0 0.0
2014-Dec-02 02:32N 49°18' W 123°06'0 0.0
2014-Dec-02 01:32N 49°18' W 123°06'0 0.0
2014-Dec-02 00:32N 49°18' W 123°06'0 0.0
2014-Dec-01 23:32N 49°18' W 123°06'0 0.1
2014-Dec-01 22:32N 49°18' W 123°05'0 0.1
2014-Dec-01 21:32N 49°18' W 123°06'0 0.1
2014-Dec-01 20:32N 49°18' W 123°06'0 0.0
2014-Dec-01 19:32N 49°18' W 123°06'0 0.2
2014-Dec-01 18:32N 49°18' W 123°05'0 0.1
2014-Dec-01 17:32N 49°18' W 123°05'0 0.0
2014-Dec-01 16:32N 49°18' W 123°05'0 0.2
2014-Dec-01 15:32N 49°18' W 123°05'0 0.1
2014-Dec-01 14:32N 49°18' W 123°05'0 0.1
2014-Dec-01 13:32N 49°18' W 123°06'0 0.0
2014-Dec-01 12:32N 49°18' W 123°06'0 0.0
2014-Dec-01 11:32N 49°18' W 123°06'0 0.1
2014-Dec-01 10:32N 49°18' W 123°05'0 0.1
2014-Dec-01 09:32N 49°18' W 123°05'0 0.0
2014-Dec-01 08:32N 49°18' W 123°05'0 0.0
2014-Dec-01 07:32N 49°18' W 123°05'0 0.0
2014-Dec-01 06:32N 49°18' W 123°05'0 0.2
2014-Dec-01 05:29N 49°18' W 123°06'0 0.1
2014-Dec-01 04:32N 49°18' W 123°06'2 2.5
2014-Dec-01 03:34N 49°19' W 123°09'9 9.5
2014-Dec-01 02:34N 49°14' W 123°22'1212.4
2014-Dec-01 01:33N 49°02' W 123°18'1312.5
2014-Dec-01 00:34N 48°53' W 123°04'8 8.4
2014-Nov-30 23:34N 48°45' W 123°05'9 9.3
2014-Nov-30 22:33N 48°38' W 123°14'1212.0
2014-Nov-30 21:33N 48°27' W 123°10'1010.1
2014-Nov-30 20:34N 48°22' W 123°23'10 9.5
2014-Nov-30 19:33N 48°14' W 123°31'9 9.0
2014-Nov-30 18:31N 48°13' W 123°45'1212.2
2014-Nov-30 17:33N 48°15' W 124°02'1312.4
2014-Nov-30 16:33N 48°21' W 124°19'1212.1
2014-Nov-30 15:34N 48°26' W 124°35'1212.1
2014-Nov-30 14:33N 48°29' W 124°53'1212.1
2014-Nov-30 13:33N 48°29' W 125°11'  
Track history (hours):
 
Tides and Currents Weather Stations Pressure Air Temp Water Temp Dewpoint Dewpoint Depression Visibility Wind Speed Wind Dir Waves Ship Positions

Darya Jyoti

Last reported at 2014-Dec-10 13:33 UTC. Time now 2014-Dec-21 20:53 UTC.
Position N 49°37' W 127°12'.
Warning: this ship's position is 11 days out of date.

Length 229 m; draft 14.4 m.

Type: Cargo ship. MMSI: 477742700.

Date/timePositionNaut miles runAvg speedWind from/ knotsBaromVisibWave heightAir tempDewpointWater temp
2014-Dec-10 13:33N 49°37' W 127°12'1010.4
2014-Dec-10 12:33N 49°30' W 126°59'1110.7
2014-Dec-10 11:34N 49°24' W 126°47'1110.7
2014-Dec-10 10:33N 49°17' W 126°33'9 9.3
2014-Dec-10 09:33N 49°12' W 126°22'8 7.9
2014-Dec-10 08:33N 49°08' W 126°11'8 7.6
2014-Dec-10 07:33N 49°04' W 126°01'7 7.0
2014-Dec-10 06:34N 48°60' W 125°53'7 7.1
2014-Dec-10 05:33N 48°55' W 125°45'8 7.7
2014-Dec-10 04:33N 48°49' W 125°38'8 8.4
2014-Dec-10 03:33N 48°42' W 125°29'8 7.9
2014-Dec-10 02:32N 48°36' W 125°22'7 6.5
2014-Dec-10 01:30N 48°32' W 125°14'5 5.3
2014-Dec-10 00:31N 48°32' W 125°06'5 5.2
2014-Dec-09 23:33N 48°32' W 124°58'5 5.2
2014-Dec-09 22:33N 48°32' W 124°50'6 5.9
2014-Dec-09 21:33N 48°30' W 124°42'8 8.4
2014-Dec-09 20:34N 48°27' W 124°30'10 9.9
2014-Dec-09 19:34N 48°23' W 124°17'1110.7
2014-Dec-09 18:34N 48°19' W 124°02'1110.8
2014-Dec-09 17:33N 48°17' W 123°46'1110.9
2014-Dec-09 16:33N 48°17' W 123°29'6 6.3
2014-Dec-09 15:33N 48°20' W 123°21'0 0.1
2014-Dec-09 14:33N 48°20' W 123°21'0 0.0
2014-Dec-09 13:33N 48°20' W 123°21'0 0.0
2014-Dec-09 12:33N 48°20' W 123°21'0 0.0
2014-Dec-09 11:33N 48°20' W 123°21'0 0.1
2014-Dec-09 10:33N 48°20' W 123°21'0 0.2
2014-Dec-09 09:33N 48°20' W 123°22'0 0.1
2014-Dec-09 08:33N 48°20' W 123°22'0 0.1
2014-Dec-09 07:33N 48°20' W 123°22'0 0.0
2014-Dec-09 06:30N 48°20' W 123°22'0 0.0
2014-Dec-09 05:33N 48°20' W 123°22'0 0.0
2014-Dec-09 04:33N 48°20' W 123°22'0 0.0
2014-Dec-09 03:33N 48°20' W 123°22'0 0.1
2014-Dec-09 02:33N 48°20' W 123°22'0 0.1
2014-Dec-09 01:33N 48°20' W 123°22'1 1.2
2014-Dec-09 00:33N 48°21' W 123°21'8 7.9
2014-Dec-08 23:33N 48°27' W 123°12'1212.0
2014-Dec-08 22:33N 48°39' W 123°15'1010.4
2014-Dec-08 21:33N 48°46' W 123°04'1010.4
2014-Dec-08 20:33N 48°56' W 123°07'5 4.7
2014-Dec-08 19:31N 49°01' W 123°09'0 0.0
2014-Dec-08 18:33N 49°01' W 123°09'0 0.0
2014-Dec-08 17:33N 49°01' W 123°09'0 0.0
2014-Dec-08 16:33N 49°01' W 123°09'0 0.0
2014-Dec-08 15:33N 49°01' W 123°09'0 0.0
2014-Dec-08 14:33N 49°01' W 123°09'0 0.0
2014-Dec-08 13:33N 49°01' W 123°09'0 0.0
2014-Dec-08 12:33N 49°01' W 123°09'0 0.0
2014-Dec-08 11:33N 49°01' W 123°09'0 0.0
2014-Dec-08 10:33N 49°01' W 123°09'0 0.0
2014-Dec-08 09:33N 49°01' W 123°09'0 0.0
2014-Dec-08 08:33N 49°01' W 123°09'0 0.0
2014-Dec-08 07:33N 49°01' W 123°09'0 0.0
2014-Dec-08 06:33N 49°01' W 123°09'0 0.0
2014-Dec-08 05:33N 49°01' W 123°09'0 0.0
2014-Dec-08 04:33N 49°01' W 123°09'0 0.0
2014-Dec-08 03:33N 49°01' W 123°09'0 0.0
2014-Dec-08 02:33N 49°01' W 123°09'0 0.0
2014-Dec-08 01:33N 49°01' W 123°09'0 0.0
2014-Dec-08 00:33N 49°01' W 123°09'0 0.0
2014-Dec-07 23:33N 49°01' W 123°09'0 0.0
2014-Dec-07 22:33N 49°01' W 123°09'0 0.0
2014-Dec-07 21:33N 49°01' W 123°09'0 0.0
2014-Dec-07 20:33N 49°01' W 123°09'0 0.0
2014-Dec-07 19:33N 49°01' W 123°09'0 0.0
2014-Dec-07 18:33N 49°01' W 123°09'0 0.0
2014-Dec-07 17:33N 49°01' W 123°09'0 0.0
2014-Dec-07 16:33N 49°01' W 123°09'0 0.0
2014-Dec-07 15:33N 49°01' W 123°09'0 0.0
2014-Dec-07 14:33N 49°01' W 123°09'0 0.0
2014-Dec-07 13:33N 49°01' W 123°09'0 0.0
2014-Dec-07 12:33N 49°01' W 123°09'0 0.0
2014-Dec-07 11:33N 49°01' W 123°09'0 0.0
2014-Dec-07 10:33N 49°01' W 123°09'0 0.0
2014-Dec-07 09:33N 49°01' W 123°09'0 0.0
2014-Dec-07 08:33N 49°01' W 123°09'0 0.0
2014-Dec-07 07:33N 49°01' W 123°09'0 0.0
2014-Dec-07 06:33N 49°01' W 123°09'0 0.0
2014-Dec-07 05:33N 49°01' W 123°09'0 0.0
2014-Dec-07 04:33N 49°01' W 123°09'0 0.0
2014-Dec-07 03:33N 49°01' W 123°09'0 0.0
2014-Dec-07 02:33N 49°01' W 123°09'0 0.0
2014-Dec-07 01:33N 49°01' W 123°09'0 0.0
2014-Dec-07 00:33N 49°01' W 123°09'0 0.0
2014-Dec-06 23:33N 49°01' W 123°09'0 0.0
2014-Dec-06 22:33N 49°01' W 123°09'0 0.0
2014-Dec-06 21:33N 49°01' W 123°09'2 1.7
2014-Dec-06 20:33N 48°59' W 123°11'1 0.6
2014-Dec-06 19:33N 48°59' W 123°11'0 0.2
2014-Dec-06 18:33N 48°59' W 123°11'7 6.6
2014-Dec-06 17:33N 48°54' W 123°05'9 8.9
2014-Dec-06 16:33N 48°45' W 123°07'6 5.4
2014-Dec-06 15:31N 48°48' W 123°13'0 0.0
2014-Dec-06 14:22N 48°48' W 123°13'0 0.0
2014-Dec-06 13:31N 48°48' W 123°13'0 0.2
2014-Dec-06 12:28N 48°48' W 123°13'0 0.0
2014-Dec-06 11:19N 48°48' W 123°13'0 0.1
2014-Dec-06 10:28N 48°48' W 123°13'0 0.0
2014-Dec-06 09:31N 48°48' W 123°13'0 0.0
2014-Dec-06 08:22N 48°48' W 123°13'0 0.1
2014-Dec-06 07:28N 48°48' W 123°13'0 0.0
2014-Dec-06 06:31N 48°48' W 123°13'0 0.0
2014-Dec-06 05:25N 48°48' W 123°13'0 0.0
2014-Dec-06 04:28N 48°48' W 123°13'0 0.0
2014-Dec-06 03:19N 48°48' W 123°13'0 0.0
2014-Dec-06 02:31N 48°48' W 123°13'0 0.0
2014-Dec-06 01:31N 48°48' W 123°13'0 0.1
2014-Dec-06 00:22N 48°48' W 123°13'0 0.0
2014-Dec-05 23:28N 48°48' W 123°13'0 0.1
2014-Dec-05 22:31N 48°48' W 123°13'0 0.0
2014-Dec-05 21:31N 48°48' W 123°13'0 0.0
2014-Dec-05 20:22N 48°48' W 123°13'0 0.1
2014-Dec-05 19:28N 48°48' W 123°13'0 0.0
2014-Dec-05 18:31N 48°48' W 123°13'0 0.0
2014-Dec-05 17:28N 48°48' W 123°13'0 0.0
2014-Dec-05 16:25N 48°48' W 123°13'0 0.0
2014-Dec-05 15:28N 48°48' W 123°13'0 0.0
2014-Dec-05 14:31N 48°48' W 123°13'0 0.0
2014-Dec-05 13:31N 48°48' W 123°13'0 0.0
2014-Dec-05 12:25N 48°48' W 123°13'0 0.1
2014-Dec-05 11:19N 48°48' W 123°13'0 0.1
2014-Dec-05 10:31N 48°48' W 123°13'0 0.1
2014-Dec-05 09:31N 48°48' W 123°13'0 0.1
2014-Dec-05 08:19N 48°48' W 123°13'0 0.1
2014-Dec-05 07:19N 48°48' W 123°13'0 0.0
2014-Dec-05 06:10N 48°48' W 123°13'0 0.0
2014-Dec-05 05:31N 48°48' W 123°13'0 0.0
2014-Dec-05 04:28N 48°48' W 123°13'0 0.0
2014-Dec-05 03:22N 48°48' W 123°13'0 0.0
2014-Dec-05 02:13N 48°48' W 123°13'0 0.0
2014-Dec-05 01:31N 48°48' W 123°13'0 0.0
2014-Dec-05 00:31N 48°48' W 123°13'0 0.1
2014-Dec-04 23:31N 48°48' W 123°13'0 0.0
2014-Dec-04 22:31N 48°48' W 123°13'0 0.0
2014-Dec-04 21:31N 48°48' W 123°13'0 0.1
2014-Dec-04 20:31N 48°48' W 123°13'0 0.1
2014-Dec-04 19:28N 48°48' W 123°13'0 0.1
2014-Dec-04 18:31N 48°48' W 123°13'0 0.0
2014-Dec-04 17:31N 48°48' W 123°13'0 0.0
2014-Dec-04 16:25N 48°48' W 123°13'0 0.0
2014-Dec-04 15:31N 48°48' W 123°13'0 0.0
2014-Dec-04 14:13N 48°48' W 123°13'0 0.1
2014-Dec-04 13:31N 48°48' W 123°13'0 0.0
2014-Dec-04 12:29N 48°48' W 123°13'0 0.0
2014-Dec-04 11:33N 48°48' W 123°13'0 0.2
2014-Dec-04 10:33N 48°48' W 123°13'0 0.1
2014-Dec-04 09:33N 48°48' W 123°13'0 0.0
2014-Dec-04 08:33N 48°48' W 123°13'3 2.5
2014-Dec-04 07:33N 48°46' W 123°12'8 7.8
2014-Dec-04 06:33N 48°51' W 123°03'1313.2
2014-Dec-04 05:33N 48°60' W 123°17'1312.6
2014-Dec-04 04:33N 49°12' W 123°22'1111.4
2014-Dec-04 03:33N 49°19' W 123°09'2 2.3
2014-Dec-04 02:32N 49°18' W 123°06'0 0.0
2014-Dec-04 01:32N 49°18' W 123°06'0 0.0
2014-Dec-04 00:32N 49°18' W 123°06'0 0.1
2014-Dec-03 23:32N 49°18' W 123°06'0 0.0
2014-Dec-03 22:32N 49°18' W 123°06'0 0.1
2014-Dec-03 21:32N 49°18' W 123°06'0 0.0
2014-Dec-03 20:32N 49°18' W 123°06'0 0.1
2014-Dec-03 19:32N 49°18' W 123°06'0 0.0
2014-Dec-03 18:32N 49°18' W 123°06'0 0.0
2014-Dec-03 17:32N 49°18' W 123°06'0 0.0
2014-Dec-03 16:32N 49°18' W 123°06'0 0.0
2014-Dec-03 15:32N 49°18' W 123°06'0 0.0
2014-Dec-03 14:32N 49°18' W 123°06'0 0.0
2014-Dec-03 13:32N 49°18' W 123°06'0 0.1
2014-Dec-03 12:32N 49°18' W 123°06'0 0.0
2014-Dec-03 11:32N 49°18' W 123°06'0 0.0
2014-Dec-03 10:32N 49°18' W 123°06'0 0.1
2014-Dec-03 09:32N 49°18' W 123°06'0 0.2
2014-Dec-03 08:32N 49°18' W 123°05'0 0.1
2014-Dec-03 07:32N 49°18' W 123°05'0 0.1
2014-Dec-03 06:32N 49°18' W 123°05'0 0.1
2014-Dec-03 05:32N 49°18' W 123°06'0 0.0
2014-Dec-03 04:32N 49°18' W 123°06'0 0.0
2014-Dec-03 03:32N 49°18' W 123°06'0 0.0
2014-Dec-03 02:32N 49°18' W 123°06'0 0.0
2014-Dec-03 01:32N 49°18' W 123°06'0 0.0
2014-Dec-03 00:32N 49°18' W 123°06'0 0.1
2014-Dec-02 23:32N 49°18' W 123°06'0 0.0
2014-Dec-02 22:32N 49°18' W 123°06'0 0.1
2014-Dec-02 21:32N 49°18' W 123°06'0 0.2
2014-Dec-02 20:32N 49°18' W 123°05'0 0.0
2014-Dec-02 19:32N 49°18' W 123°05'0 0.0
2014-Dec-02 18:32N 49°18' W 123°05'0 0.1
2014-Dec-02 17:32N 49°18' W 123°05'0 0.1
2014-Dec-02 16:32N 49°18' W 123°06'0 0.0
2014-Dec-02 15:32N 49°18' W 123°06'0 0.0
2014-Dec-02 14:32N 49°18' W 123°06'0 0.0
2014-Dec-02 13:32N 49°18' W 123°06'0 0.1
2014-Dec-02 12:29N 49°18' W 123°05'0 0.1
2014-Dec-02 11:32N 49°18' W 123°06'0 0.1
2014-Dec-02 10:32N 49°18' W 123°06'0 0.0
2014-Dec-02 09:32N 49°18' W 123°06'0 0.2
2014-Dec-02 08:32N 49°18' W 123°05'0 0.1
2014-Dec-02 07:29N 49°18' W 123°05'0 0.2
2014-Dec-02 06:32N 49°18' W 123°05'0 0.1
2014-Dec-02 05:32N 49°18' W 123°06'0 0.0
2014-Dec-02 04:32N 49°18' W 123°06'0 0.0
2014-Dec-02 03:32N 49°18' W 123°06'0 0.0
2014-Dec-02 02:32N 49°18' W 123°06'0 0.0
2014-Dec-02 01:32N 49°18' W 123°06'0 0.0
2014-Dec-02 00:32N 49°18' W 123°06'0 0.0
2014-Dec-01 23:32N 49°18' W 123°06'0 0.1
2014-Dec-01 22:32N 49°18' W 123°05'0 0.1
2014-Dec-01 21:32N 49°18' W 123°06'0 0.1
2014-Dec-01 20:32N 49°18' W 123°06'0 0.0
2014-Dec-01 19:32N 49°18' W 123°06'0 0.2
2014-Dec-01 18:32N 49°18' W 123°05'0 0.1
2014-Dec-01 17:32N 49°18' W 123°05'0 0.0
2014-Dec-01 16:32N 49°18' W 123°05'0 0.2
2014-Dec-01 15:32N 49°18' W 123°05'0 0.1
2014-Dec-01 14:32N 49°18' W 123°05'0 0.1
2014-Dec-01 13:32N 49°18' W 123°06'0 0.0
2014-Dec-01 12:32N 49°18' W 123°06'0 0.0
2014-Dec-01 11:32N 49°18' W 123°06'0 0.1
2014-Dec-01 10:32N 49°18' W 123°05'0 0.1
2014-Dec-01 09:32N 49°18' W 123°05'0 0.0
2014-Dec-01 08:32N 49°18' W 123°05'0 0.0
2014-Dec-01 07:32N 49°18' W 123°05'0 0.0
2014-Dec-01 06:32N 49°18' W 123°05'0 0.2
2014-Dec-01 05:29N 49°18' W 123°06'0 0.1
2014-Dec-01 04:32N 49°18' W 123°06'2 2.5
2014-Dec-01 03:34N 49°19' W 123°09'9 9.5
2014-Dec-01 02:34N 49°14' W 123°22'1212.4
2014-Dec-01 01:33N 49°02' W 123°18'1312.5
2014-Dec-01 00:34N 48°53' W 123°04'8 8.4
2014-Nov-30 23:34N 48°45' W 123°05'9 9.3
2014-Nov-30 22:33N 48°38' W 123°14'1212.0
2014-Nov-30 21:33N 48°27' W 123°10'1010.1
2014-Nov-30 20:34N 48°22' W 123°23'10 9.5
2014-Nov-30 19:33N 48°14' W 123°31'9 9.0
2014-Nov-30 18:31N 48°13' W 123°45'1212.2
2014-Nov-30 17:33N 48°15' W 124°02'1312.4
2014-Nov-30 16:33N 48°21' W 124°19'1212.1
2014-Nov-30 15:34N 48°26' W 124°35'1212.1
2014-Nov-30 14:33N 48°29' W 124°53'1212.1
2014-Nov-30 13:33N 48°29' W 125°11'  

Dump ship's entire track history